sensor_id;sensor_type;location;lat;lon;timestamp;P1;durP1;ratioP1;P2;durP2;ratioP2
10731;SDS011;5417;42.686;23.244;2022-11-02T00:01:22;14.20;;;9.20;;
10731;SDS011;5417;42.686;23.244;2022-11-02T00:03:57;14.33;;;8.87;;
10731;SDS011;5417;42.686;23.244;2022-11-02T00:06:24;14.53;;;9.50;;
10731;SDS011;5417;42.686;23.244;2022-11-02T00:09:00;10.57;;;9.07;;
10731;SDS011;5417;42.686;23.244;2022-11-02T00:11:30;14.17;;;9.33;;
10731;SDS011;5417;42.686;23.244;2022-11-02T00:13:59;10.00;;;8.53;;
10731;SDS011;5417;42.686;23.244;2022-11-02T00:16:43;11.50;;;8.87;;
10731;SDS011;5417;42.686;23.244;2022-11-02T00:19:17;12.27;;;9.57;;
10731;SDS011;5417;42.686;23.244;2022-11-02T00:21:44;11.93;;;9.50;;
10731;SDS011;5417;42.686;23.244;2022-11-02T00:24:30;14.10;;;8.50;;
10731;SDS011;5417;42.686;23.244;2022-11-02T00:27:05;12.63;;;8.73;;
10731;SDS011;5417;42.686;23.244;2022-11-02T00:29:32;16.70;;;10.03;;
10731;SDS011;5417;42.686;23.244;2022-11-02T00:32:02;14.40;;;9.50;;
10731;SDS011;5417;42.686;23.244;2022-11-02T00:34:31;13.33;;;9.73;;
10731;SDS011;5417;42.686;23.244;2022-11-02T00:37:02;11.47;;;9.83;;
10731;SDS011;5417;42.686;23.244;2022-11-02T00:39:32;16.50;;;9.90;;
10731;SDS011;5417;42.686;23.244;2022-11-02T00:42:00;16.30;;;10.87;;
10731;SDS011;5417;42.686;23.244;2022-11-02T00:44:28;13.10;;;10.13;;
10731;SDS011;5417;42.686;23.244;2022-11-02T00:46:57;12.10;;;10.37;;
10731;SDS011;5417;42.686;23.244;2022-11-02T00:49:33;13.37;;;10.17;;
10731;SDS011;5417;42.686;23.244;2022-11-02T00:52:00;15.07;;;10.93;;
10731;SDS011;5417;42.686;23.244;2022-11-02T00:54:27;15.10;;;10.03;;
10731;SDS011;5417;42.686;23.244;2022-11-02T00:57:08;12.20;;;9.40;;
10731;SDS011;5417;42.686;23.244;2022-11-02T01:02:17;12.43;;;10.53;;
10731;SDS011;5417;42.686;23.244;2022-11-02T01:04:53;15.43;;;11.57;;
10731;SDS011;5417;42.686;23.244;2022-11-02T01:07:20;17.27;;;11.13;;
10731;SDS011;5417;42.686;23.244;2022-11-02T01:09:47;16.83;;;11.20;;
10731;SDS011;5417;42.686;23.244;2022-11-02T01:12:15;17.50;;;11.73;;
10731;SDS011;5417;42.686;23.244;2022-11-02T01:14:49;14.60;;;11.53;;
10731;SDS011;5417;42.686;23.244;2022-11-02T01:17:19;13.70;;;11.90;;
10731;SDS011;5417;42.686;23.244;2022-11-02T01:19:52;16.93;;;12.00;;
10731;SDS011;5417;42.686;23.244;2022-11-02T01:22:19;16.43;;;11.70;;
10731;SDS011;5417;42.686;23.244;2022-11-02T01:27:34;18.03;;;12.70;;
10731;SDS011;5417;42.686;23.244;2022-11-02T01:30:02;20.33;;;12.30;;
10731;SDS011;5417;42.686;23.244;2022-11-02T01:32:29;19.47;;;12.40;;
10731;SDS011;5417;42.686;23.244;2022-11-02T01:34:58;12.97;;;11.27;;
10731;SDS011;5417;42.686;23.244;2022-11-02T01:37:28;16.43;;;12.23;;
10731;SDS011;5417;42.686;23.244;2022-11-02T01:39:57;14.93;;;11.17;;
10731;SDS011;5417;42.686;23.244;2022-11-02T01:42:24;13.27;;;10.93;;
10731;SDS011;5417;42.686;23.244;2022-11-02T01:45:02;16.53;;;11.53;;
10731;SDS011;5417;42.686;23.244;2022-11-02T01:47:34;15.77;;;11.10;;
10731;SDS011;5417;42.686;23.244;2022-11-02T01:52:37;14.20;;;10.07;;
10731;SDS011;5417;42.686;23.244;2022-11-02T01:55:14;12.53;;;10.70;;
10731;SDS011;5417;42.686;23.244;2022-11-02T01:57:46;12.50;;;11.23;;
10731;SDS011;5417;42.686;23.244;2022-11-02T02:00:20;13.83;;;10.60;;
10731;SDS011;5417;42.686;23.244;2022-11-02T02:02:54;12.90;;;10.40;;
10731;SDS011;5417;42.686;23.244;2022-11-02T02:05:38;13.93;;;10.60;;
10731;SDS011;5417;42.686;23.244;2022-11-02T02:08:07;19.50;;;11.17;;
10731;SDS011;5417;42.686;23.244;2022-11-02T02:13:07;16.30;;;10.17;;
10731;SDS011;5417;42.686;23.244;2022-11-02T02:15:38;16.07;;;10.50;;
10731;SDS011;5417;42.686;23.244;2022-11-02T02:18:09;14.77;;;9.77;;
10731;SDS011;5417;42.686;23.244;2022-11-02T02:23:37;15.57;;;9.53;;
10731;SDS011;5417;42.686;23.244;2022-11-02T02:29:21;16.00;;;9.90;;
10731;SDS011;5417;42.686;23.244;2022-11-02T02:31:54;16.43;;;10.43;;
10731;SDS011;5417;42.686;23.244;2022-11-02T02:34:27;18.13;;;11.57;;
10731;SDS011;5417;42.686;23.244;2022-11-02T02:37:02;11.33;;;9.70;;
10731;SDS011;5417;42.686;23.244;2022-11-02T02:39:41;13.97;;;10.37;;
10731;SDS011;5417;42.686;23.244;2022-11-02T02:44:57;14.63;;;10.67;;
10731;SDS011;5417;42.686;23.244;2022-11-02T02:47:41;18.53;;;11.37;;
10731;SDS011;5417;42.686;23.244;2022-11-02T02:50:17;15.47;;;10.33;;
10731;SDS011;5417;42.686;23.244;2022-11-02T02:52:48;20.23;;;10.90;;
10731;SDS011;5417;42.686;23.244;2022-11-02T02:55:16;12.80;;;10.87;;
10731;SDS011;5417;42.686;23.244;2022-11-02T03:00:35;14.77;;;10.53;;
10731;SDS011;5417;42.686;23.244;2022-11-02T03:03:03;14.33;;;11.17;;
10731;SDS011;5417;42.686;23.244;2022-11-02T03:05:36;12.93;;;11.43;;
10731;SDS011;5417;42.686;23.244;2022-11-02T03:08:04;20.30;;;15.60;;
10731;SDS011;5417;42.686;23.244;2022-11-02T03:10:34;14.73;;;11.37;;
10731;SDS011;5417;42.686;23.244;2022-11-02T03:19:03;20.63;;;12.87;;
10731;SDS011;5417;42.686;23.244;2022-11-02T03:21:43;17.40;;;11.50;;
10731;SDS011;5417;42.686;23.244;2022-11-02T03:24:13;37.90;;;23.00;;
10731;SDS011;5417;42.686;23.244;2022-11-02T03:26:46;31.57;;;18.67;;
10731;SDS011;5417;42.686;23.244;2022-11-02T03:29:20;19.10;;;12.30;;
10731;SDS011;5417;42.686;23.244;2022-11-02T03:31:53;18.33;;;11.90;;
10731;SDS011;5417;42.686;23.244;2022-11-02T03:34:27;16.87;;;12.00;;
10731;SDS011;5417;42.686;23.244;2022-11-02T03:37:05;55.17;;;38.50;;
10731;SDS011;5417;42.686;23.244;2022-11-02T03:39:41;84.20;;;61.27;;
10731;SDS011;5417;42.686;23.244;2022-11-02T03:42:19;28.17;;;20.03;;
10731;SDS011;5417;42.686;23.244;2022-11-02T03:44:54;17.60;;;11.33;;
10731;SDS011;5417;42.686;23.244;2022-11-02T03:47:25;16.63;;;11.50;;
10731;SDS011;5417;42.686;23.244;2022-11-02T03:52:52;16.90;;;11.40;;
10731;SDS011;5417;42.686;23.244;2022-11-02T03:55:27;15.17;;;11.47;;
10731;SDS011;5417;42.686;23.244;2022-11-02T03:57:58;14.23;;;11.13;;
10731;SDS011;5417;42.686;23.244;2022-11-02T04:03:18;15.43;;;10.97;;
10731;SDS011;5417;42.686;23.244;2022-11-02T04:05:59;16.77;;;10.83;;
10731;SDS011;5417;42.686;23.244;2022-11-02T04:08:27;14.63;;;11.30;;
10731;SDS011;5417;42.686;23.244;2022-11-02T04:11:00;13.27;;;10.67;;
10731;SDS011;5417;42.686;23.244;2022-11-02T04:16:48;13.37;;;11.57;;
10731;SDS011;5417;42.686;23.244;2022-11-02T04:19:35;16.80;;;11.33;;
10731;SDS011;5417;42.686;23.244;2022-11-02T04:22:02;16.13;;;11.07;;
10731;SDS011;5417;42.686;23.244;2022-11-02T04:24:47;14.63;;;11.47;;
10731;SDS011;5417;42.686;23.244;2022-11-02T04:27:31;21.73;;;11.67;;
10731;SDS011;5417;42.686;23.244;2022-11-02T04:29:58;13.77;;;10.63;;
10731;SDS011;5417;42.686;23.244;2022-11-02T04:32:25;13.70;;;11.17;;
10731;SDS011;5417;42.686;23.244;2022-11-02T04:35:10;15.20;;;11.77;;
10731;SDS011;5417;42.686;23.244;2022-11-02T04:37:38;18.63;;;12.23;;
10731;SDS011;5417;42.686;23.244;2022-11-02T04:40:23;15.43;;;11.37;;
10731;SDS011;5417;42.686;23.244;2022-11-02T04:42:50;16.90;;;11.37;;
10731;SDS011;5417;42.686;23.244;2022-11-02T04:45:17;15.87;;;10.97;;
10731;SDS011;5417;42.686;23.244;2022-11-02T04:47:44;19.47;;;11.10;;
10731;SDS011;5417;42.686;23.244;2022-11-02T04:50:11;15.40;;;10.97;;
10731;SDS011;5417;42.686;23.244;2022-11-02T04:52:39;14.50;;;10.63;;
10731;SDS011;5417;42.686;23.244;2022-11-02T04:55:07;14.47;;;11.50;;
10731;SDS011;5417;42.686;23.244;2022-11-02T04:57:34;17.73;;;11.83;;
10731;SDS011;5417;42.686;23.244;2022-11-02T05:00:01;16.47;;;12.20;;
10731;SDS011;5417;42.686;23.244;2022-11-02T05:02:31;19.00;;;13.80;;
10731;SDS011;5417;42.686;23.244;2022-11-02T05:04:58;17.83;;;11.77;;
10731;SDS011;5417;42.686;23.244;2022-11-02T05:07:26;22.57;;;13.60;;
10731;SDS011;5417;42.686;23.244;2022-11-02T05:09:54;16.30;;;11.90;;
10731;SDS011;5417;42.686;23.244;2022-11-02T05:12:21;22.50;;;12.93;;
10731;SDS011;5417;42.686;23.244;2022-11-02T05:14:48;18.97;;;12.17;;
10731;SDS011;5417;42.686;23.244;2022-11-02T05:17:14;18.50;;;13.57;;
10731;SDS011;5417;42.686;23.244;2022-11-02T05:19:41;16.87;;;13.57;;
10731;SDS011;5417;42.686;23.244;2022-11-02T05:22:08;18.43;;;13.53;;
10731;SDS011;5417;42.686;23.244;2022-11-02T05:24:35;23.53;;;12.63;;
10731;SDS011;5417;42.686;23.244;2022-11-02T05:27:03;18.17;;;14.00;;
10731;SDS011;5417;42.686;23.244;2022-11-02T05:29:30;17.23;;;12.97;;
10731;SDS011;5417;42.686;23.244;2022-11-02T05:31:57;18.03;;;13.03;;
10731;SDS011;5417;42.686;23.244;2022-11-02T05:34:24;28.53;;;13.70;;
10731;SDS011;5417;42.686;23.244;2022-11-02T05:36:51;21.20;;;14.17;;
10731;SDS011;5417;42.686;23.244;2022-11-02T05:39:18;19.60;;;13.83;;
10731;SDS011;5417;42.686;23.244;2022-11-02T05:41:45;23.00;;;14.50;;
10731;SDS011;5417;42.686;23.244;2022-11-02T05:44:14;27.87;;;14.00;;
10731;SDS011;5417;42.686;23.244;2022-11-02T05:46:41;19.50;;;13.73;;
10731;SDS011;5417;42.686;23.244;2022-11-02T05:49:08;22.30;;;13.27;;
10731;SDS011;5417;42.686;23.244;2022-11-02T05:51:35;21.00;;;14.67;;
10731;SDS011;5417;42.686;23.244;2022-11-02T05:54:02;25.33;;;16.33;;
10731;SDS011;5417;42.686;23.244;2022-11-02T05:56:33;21.00;;;14.63;;
10731;SDS011;5417;42.686;23.244;2022-11-02T05:59:15;25.73;;;14.17;;
10731;SDS011;5417;42.686;23.244;2022-11-02T06:01:42;20.43;;;14.70;;
10731;SDS011;5417;42.686;23.244;2022-11-02T06:04:08;20.20;;;14.10;;
10731;SDS011;5417;42.686;23.244;2022-11-02T06:06:35;25.10;;;16.73;;
10731;SDS011;5417;42.686;23.244;2022-11-02T06:09:03;24.07;;;16.10;;
10731;SDS011;5417;42.686;23.244;2022-11-02T06:11:31;19.60;;;15.77;;
10731;SDS011;5417;42.686;23.244;2022-11-02T06:13:58;26.00;;;16.07;;
10731;SDS011;5417;42.686;23.244;2022-11-02T06:16:26;22.77;;;15.23;;
10731;SDS011;5417;42.686;23.244;2022-11-02T06:18:53;18.77;;;14.20;;
10731;SDS011;5417;42.686;23.244;2022-11-02T06:21:20;18.60;;;14.70;;
10731;SDS011;5417;42.686;23.244;2022-11-02T06:23:47;22.37;;;14.50;;
10731;SDS011;5417;42.686;23.244;2022-11-02T06:26:14;22.87;;;13.30;;
10731;SDS011;5417;42.686;23.244;2022-11-02T06:28:41;23.57;;;14.73;;
10731;SDS011;5417;42.686;23.244;2022-11-02T06:31:08;20.40;;;12.50;;
10731;SDS011;5417;42.686;23.244;2022-11-02T06:33:37;21.87;;;13.93;;
10731;SDS011;5417;42.686;23.244;2022-11-02T06:38:41;17.23;;;13.77;;
10731;SDS011;5417;42.686;23.244;2022-11-02T06:41:10;19.80;;;12.77;;
10731;SDS011;5417;42.686;23.244;2022-11-02T06:43:44;19.37;;;13.97;;
10731;SDS011;5417;42.686;23.244;2022-11-02T06:46:29;20.80;;;13.57;;
10731;SDS011;5417;42.686;23.244;2022-11-02T06:48:59;19.83;;;14.07;;
10731;SDS011;5417;42.686;23.244;2022-11-02T06:51:29;22.70;;;14.77;;
10731;SDS011;5417;42.686;23.244;2022-11-02T06:53:56;22.00;;;15.37;;
10731;SDS011;5417;42.686;23.244;2022-11-02T06:56:23;17.33;;;14.27;;
10731;SDS011;5417;42.686;23.244;2022-11-02T06:58:49;22.03;;;14.43;;
10731;SDS011;5417;42.686;23.244;2022-11-02T07:01:23;27.93;;;15.27;;
10731;SDS011;5417;42.686;23.244;2022-11-02T07:03:49;24.07;;;14.37;;
10731;SDS011;5417;42.686;23.244;2022-11-02T07:06:19;19.50;;;13.97;;
10731;SDS011;5417;42.686;23.244;2022-11-02T07:08:48;22.70;;;14.60;;
10731;SDS011;5417;42.686;23.244;2022-11-02T07:13:46;21.97;;;13.73;;
10731;SDS011;5417;42.686;23.244;2022-11-02T07:16:15;26.00;;;15.27;;
10731;SDS011;5417;42.686;23.244;2022-11-02T07:18:46;19.40;;;13.40;;
10731;SDS011;5417;42.686;23.244;2022-11-02T07:23:44;20.43;;;14.03;;
10731;SDS011;5417;42.686;23.244;2022-11-02T07:26:17;17.47;;;13.97;;
10731;SDS011;5417;42.686;23.244;2022-11-02T07:28:52;25.40;;;14.30;;
10731;SDS011;5417;42.686;23.244;2022-11-02T07:31:19;21.30;;;14.30;;
10731;SDS011;5417;42.686;23.244;2022-11-02T07:33:45;19.03;;;13.13;;
10731;SDS011;5417;42.686;23.244;2022-11-02T07:36:12;15.80;;;11.63;;
10731;SDS011;5417;42.686;23.244;2022-11-02T07:38:48;18.00;;;12.53;;
10731;SDS011;5417;42.686;23.244;2022-11-02T07:41:15;18.33;;;13.00;;
10731;SDS011;5417;42.686;23.244;2022-11-02T07:43:42;17.27;;;13.90;;
10731;SDS011;5417;42.686;23.244;2022-11-02T07:48:46;17.53;;;13.00;;
10731;SDS011;5417;42.686;23.244;2022-11-02T07:51:15;22.43;;;13.47;;
10731;SDS011;5417;42.686;23.244;2022-11-02T07:53:42;19.70;;;14.30;;
10731;SDS011;5417;42.686;23.244;2022-11-02T07:56:13;18.53;;;13.13;;
10731;SDS011;5417;42.686;23.244;2022-11-02T07:58:40;21.17;;;12.93;;
10731;SDS011;5417;42.686;23.244;2022-11-02T08:01:07;21.67;;;13.07;;
10731;SDS011;5417;42.686;23.244;2022-11-02T08:03:34;25.70;;;13.50;;
10731;SDS011;5417;42.686;23.244;2022-11-02T08:06:02;22.17;;;13.73;;
10731;SDS011;5417;42.686;23.244;2022-11-02T08:11:09;17.97;;;13.87;;
10731;SDS011;5417;42.686;23.244;2022-11-02T08:13:37;22.67;;;13.93;;
10731;SDS011;5417;42.686;23.244;2022-11-02T08:16:04;18.87;;;13.90;;
10731;SDS011;5417;42.686;23.244;2022-11-02T08:18:32;23.73;;;15.27;;
10731;SDS011;5417;42.686;23.244;2022-11-02T08:20:59;22.40;;;14.80;;
10731;SDS011;5417;42.686;23.244;2022-11-02T08:23:27;20.20;;;14.17;;
10731;SDS011;5417;42.686;23.244;2022-11-02T08:25:54;26.43;;;15.07;;
10731;SDS011;5417;42.686;23.244;2022-11-02T08:28:24;24.70;;;15.33;;
10731;SDS011;5417;42.686;23.244;2022-11-02T08:30:56;20.10;;;15.90;;
10731;SDS011;5417;42.686;23.244;2022-11-02T08:33:23;20.50;;;15.57;;
10731;SDS011;5417;42.686;23.244;2022-11-02T08:35:51;18.83;;;15.30;;
10731;SDS011;5417;42.686;23.244;2022-11-02T08:38:18;18.83;;;15.50;;
10731;SDS011;5417;42.686;23.244;2022-11-02T08:40:46;26.27;;;15.97;;
10731;SDS011;5417;42.686;23.244;2022-11-02T08:43:14;23.07;;;17.03;;
10731;SDS011;5417;42.686;23.244;2022-11-02T08:45:43;22.17;;;16.83;;
10731;SDS011;5417;42.686;23.244;2022-11-02T08:48:12;23.20;;;17.70;;
10731;SDS011;5417;42.686;23.244;2022-11-02T08:50:39;22.33;;;17.27;;
10731;SDS011;5417;42.686;23.244;2022-11-02T08:53:06;24.80;;;17.00;;
10731;SDS011;5417;42.686;23.244;2022-11-02T08:55:33;22.10;;;17.30;;
10731;SDS011;5417;42.686;23.244;2022-11-02T09:00:34;28.20;;;18.37;;
10731;SDS011;5417;42.686;23.244;2022-11-02T09:03:02;25.57;;;17.07;;
10731;SDS011;5417;42.686;23.244;2022-11-02T09:05:32;22.63;;;18.13;;
10731;SDS011;5417;42.686;23.244;2022-11-02T09:08:01;26.90;;;18.07;;
10731;SDS011;5417;42.686;23.244;2022-11-02T09:10:30;23.87;;;17.70;;
10731;SDS011;5417;42.686;23.244;2022-11-02T09:12:58;25.03;;;18.17;;
10731;SDS011;5417;42.686;23.244;2022-11-02T09:15:27;29.63;;;20.10;;
10731;SDS011;5417;42.686;23.244;2022-11-02T09:17:57;29.60;;;18.17;;
10731;SDS011;5417;42.686;23.244;2022-11-02T09:20:26;21.90;;;17.30;;
10731;SDS011;5417;42.686;23.244;2022-11-02T09:22:54;25.10;;;17.57;;
10731;SDS011;5417;42.686;23.244;2022-11-02T09:25:21;26.57;;;19.23;;
10731;SDS011;5417;42.686;23.244;2022-11-02T09:27:51;28.50;;;18.23;;
10731;SDS011;5417;42.686;23.244;2022-11-02T09:30:19;28.63;;;18.43;;
10731;SDS011;5417;42.686;23.244;2022-11-02T09:32:52;27.87;;;18.20;;
10731;SDS011;5417;42.686;23.244;2022-11-02T09:35:21;23.63;;;16.20;;
10731;SDS011;5417;42.686;23.244;2022-11-02T09:37:49;27.00;;;16.40;;
10731;SDS011;5417;42.686;23.244;2022-11-02T09:40:18;27.63;;;16.57;;
10731;SDS011;5417;42.686;23.244;2022-11-02T09:42:49;25.90;;;18.10;;
10731;SDS011;5417;42.686;23.244;2022-11-02T09:45:24;23.47;;;17.50;;
10731;SDS011;5417;42.686;23.244;2022-11-02T09:47:52;23.67;;;17.27;;
10731;SDS011;5417;42.686;23.244;2022-11-02T09:50:37;29.00;;;21.07;;
10731;SDS011;5417;42.686;23.244;2022-11-02T09:53:12;27.80;;;17.73;;
10731;SDS011;5417;42.686;23.244;2022-11-02T09:55:48;24.83;;;18.13;;
10731;SDS011;5417;42.686;23.244;2022-11-02T09:58:27;34.47;;;18.97;;
10731;SDS011;5417;42.686;23.244;2022-11-02T10:00:58;29.30;;;18.80;;
10731;SDS011;5417;42.686;23.244;2022-11-02T10:03:33;27.80;;;17.90;;
10731;SDS011;5417;42.686;23.244;2022-11-02T10:06:09;24.80;;;15.23;;
10731;SDS011;5417;42.686;23.244;2022-11-02T10:08:42;26.97;;;16.53;;
10731;SDS011;5417;42.686;23.244;2022-11-02T10:11:21;20.07;;;17.47;;
10731;SDS011;5417;42.686;23.244;2022-11-02T10:13:59;24.13;;;15.83;;
10731;SDS011;5417;42.686;23.244;2022-11-02T10:16:32;27.13;;;16.27;;
10731;SDS011;5417;42.686;23.244;2022-11-02T10:19:14;26.07;;;13.37;;
10731;SDS011;5417;42.686;23.244;2022-11-02T10:21:45;19.70;;;12.27;;
10731;SDS011;5417;42.686;23.244;2022-11-02T10:27:17;17.37;;;10.00;;
10731;SDS011;5417;42.686;23.244;2022-11-02T10:29:48;12.17;;;7.70;;
10731;SDS011;5417;42.686;23.244;2022-11-02T10:32:20;17.53;;;6.80;;
10731;SDS011;5417;42.686;23.244;2022-11-02T10:34:47;13.67;;;7.93;;
10731;SDS011;5417;42.686;23.244;2022-11-02T10:37:17;13.90;;;7.40;;
10731;SDS011;5417;42.686;23.244;2022-11-02T10:39:57;14.03;;;7.57;;
10731;SDS011;5417;42.686;23.244;2022-11-02T10:42:37;12.77;;;7.90;;
10731;SDS011;5417;42.686;23.244;2022-11-02T10:48:10;15.57;;;6.90;;
10731;SDS011;5417;42.686;23.244;2022-11-02T10:50:46;11.43;;;6.20;;
10731;SDS011;5417;42.686;23.244;2022-11-02T10:53:17;14.13;;;6.43;;
10731;SDS011;5417;42.686;23.244;2022-11-02T10:55:50;9.47;;;4.73;;
10731;SDS011;5417;42.686;23.244;2022-11-02T10:58:23;15.80;;;5.93;;
10731;SDS011;5417;42.686;23.244;2022-11-02T11:01:03;15.87;;;6.63;;
10731;SDS011;5417;42.686;23.244;2022-11-02T11:03:30;8.97;;;5.83;;
10731;SDS011;5417;42.686;23.244;2022-11-02T11:05:58;9.60;;;4.80;;
10731;SDS011;5417;42.686;23.244;2022-11-02T11:08:28;11.23;;;6.07;;
10731;SDS011;5417;42.686;23.244;2022-11-02T11:11:10;10.23;;;5.60;;
10731;SDS011;5417;42.686;23.244;2022-11-02T11:13:42;6.80;;;4.57;;
10731;SDS011;5417;42.686;23.244;2022-11-02T11:16:35;7.33;;;4.47;;
10731;SDS011;5417;42.686;23.244;2022-11-02T11:19:17;7.73;;;4.10;;
10731;SDS011;5417;42.686;23.244;2022-11-02T11:21:49;4.10;;;3.47;;
10731;SDS011;5417;42.686;23.244;2022-11-02T11:24:21;8.23;;;3.13;;
10731;SDS011;5417;42.686;23.244;2022-11-02T11:26:59;8.37;;;4.33;;
10731;SDS011;5417;42.686;23.244;2022-11-02T11:29:32;9.20;;;4.37;;
10731;SDS011;5417;42.686;23.244;2022-11-02T11:32:01;8.23;;;4.67;;
10731;SDS011;5417;42.686;23.244;2022-11-02T11:34:29;15.17;;;13.40;;
10731;SDS011;5417;42.686;23.244;2022-11-02T11:37:04;12.77;;;8.50;;
10731;SDS011;5417;42.686;23.244;2022-11-02T11:39:34;11.63;;;6.63;;
10731;SDS011;5417;42.686;23.244;2022-11-02T11:42:04;8.60;;;3.90;;
10731;SDS011;5417;42.686;23.244;2022-11-02T11:44:44;9.43;;;3.97;;
10731;SDS011;5417;42.686;23.244;2022-11-02T11:47:16;7.80;;;4.03;;
10731;SDS011;5417;42.686;23.244;2022-11-02T11:49:50;10.87;;;5.80;;
10731;SDS011;5417;42.686;23.244;2022-11-02T11:52:19;13.80;;;5.03;;
10731;SDS011;5417;42.686;23.244;2022-11-02T11:54:52;5.47;;;4.50;;
10731;SDS011;5417;42.686;23.244;2022-11-02T11:57:25;12.80;;;4.73;;
10731;SDS011;5417;42.686;23.244;2022-11-02T11:59:57;9.67;;;4.17;;
10731;SDS011;5417;42.686;23.244;2022-11-02T12:02:29;8.47;;;4.30;;
10731;SDS011;5417;42.686;23.244;2022-11-02T12:05:01;5.83;;;4.17;;
10731;SDS011;5417;42.686;23.244;2022-11-02T12:10:52;8.57;;;4.63;;
10731;SDS011;5417;42.686;23.244;2022-11-02T12:13:34;9.20;;;4.10;;
10731;SDS011;5417;42.686;23.244;2022-11-02T12:16:16;9.97;;;4.87;;
10731;SDS011;5417;42.686;23.244;2022-11-02T12:18:54;9.20;;;4.23;;
10731;SDS011;5417;42.686;23.244;2022-11-02T12:21:38;7.67;;;3.83;;
10731;SDS011;5417;42.686;23.244;2022-11-02T12:24:19;9.17;;;4.17;;
10731;SDS011;5417;42.686;23.244;2022-11-02T12:27:00;12.37;;;5.13;;
10731;SDS011;5417;42.686;23.244;2022-11-02T12:29:49;6.97;;;4.00;;
10731;SDS011;5417;42.686;23.244;2022-11-02T12:32:43;9.10;;;3.80;;
10731;SDS011;5417;42.686;23.244;2022-11-02T12:35:34;10.10;;;4.33;;
10731;SDS011;5417;42.686;23.244;2022-11-02T12:38:15;9.67;;;4.90;;
10731;SDS011;5417;42.686;23.244;2022-11-02T12:41:06;13.17;;;4.63;;
10731;SDS011;5417;42.686;23.244;2022-11-02T12:43:37;9.10;;;4.07;;
10731;SDS011;5417;42.686;23.244;2022-11-02T12:46:09;12.13;;;4.43;;
10731;SDS011;5417;42.686;23.244;2022-11-02T12:48:55;9.43;;;4.37;;
10731;SDS011;5417;42.686;23.244;2022-11-02T12:51:28;12.27;;;4.50;;
10731;SDS011;5417;42.686;23.244;2022-11-02T12:54:03;11.48;;;4.55;;
10731;SDS011;5417;42.686;23.244;2022-11-02T12:56:38;9.50;;;5.30;;
10731;SDS011;5417;42.686;23.244;2022-11-02T12:59:13;9.70;;;4.83;;
10731;SDS011;5417;42.686;23.244;2022-11-02T13:01:43;7.47;;;3.90;;
10731;SDS011;5417;42.686;23.244;2022-11-02T13:04:17;14.77;;;4.70;;
10731;SDS011;5417;42.686;23.244;2022-11-02T13:06:48;10.17;;;4.37;;
10731;SDS011;5417;42.686;23.244;2022-11-02T13:09:20;7.67;;;3.90;;
10731;SDS011;5417;42.686;23.244;2022-11-02T13:11:52;9.20;;;4.47;;
10731;SDS011;5417;42.686;23.244;2022-11-02T13:14:23;10.37;;;4.50;;
10731;SDS011;5417;42.686;23.244;2022-11-02T13:16:58;8.77;;;4.20;;
10731;SDS011;5417;42.686;23.244;2022-11-02T13:19:32;9.13;;;4.17;;
10731;SDS011;5417;42.686;23.244;2022-11-02T13:22:01;9.67;;;5.20;;
10731;SDS011;5417;42.686;23.244;2022-11-02T13:24:30;12.23;;;4.80;;
10731;SDS011;5417;42.686;23.244;2022-11-02T13:27:03;9.97;;;4.07;;
10731;SDS011;5417;42.686;23.244;2022-11-02T13:29:34;9.97;;;4.47;;
10731;SDS011;5417;42.686;23.244;2022-11-02T13:32:08;8.57;;;4.27;;
10731;SDS011;5417;42.686;23.244;2022-11-02T13:34:44;7.27;;;4.10;;
10731;SDS011;5417;42.686;23.244;2022-11-02T13:37:14;7.97;;;4.80;;
10731;SDS011;5417;42.686;23.244;2022-11-02T13:39:49;10.83;;;4.37;;
10731;SDS011;5417;42.686;23.244;2022-11-02T13:48:19;11.20;;;5.57;;
10731;SDS011;5417;42.686;23.244;2022-11-02T13:50:56;12.37;;;4.80;;
10731;SDS011;5417;42.686;23.244;2022-11-02T13:53:32;6.97;;;4.33;;
10731;SDS011;5417;42.686;23.244;2022-11-02T13:56:03;11.60;;;4.50;;
10731;SDS011;5417;42.686;23.244;2022-11-02T13:58:34;15.60;;;5.63;;
10731;SDS011;5417;42.686;23.244;2022-11-02T14:01:05;9.70;;;4.93;;
10731;SDS011;5417;42.686;23.244;2022-11-02T14:03:41;12.63;;;5.13;;
10731;SDS011;5417;42.686;23.244;2022-11-02T14:06:16;8.63;;;5.10;;
10731;SDS011;5417;42.686;23.244;2022-11-02T14:08:46;9.53;;;4.83;;
10731;SDS011;5417;42.686;23.244;2022-11-02T14:14:15;9.13;;;4.67;;
10731;SDS011;5417;42.686;23.244;2022-11-02T14:16:55;12.60;;;5.70;;
10731;SDS011;5417;42.686;23.244;2022-11-02T14:19:24;9.40;;;5.20;;
10731;SDS011;5417;42.686;23.244;2022-11-02T14:22:07;10.57;;;5.20;;
10731;SDS011;5417;42.686;23.244;2022-11-02T14:27:43;11.57;;;4.70;;
10731;SDS011;5417;42.686;23.244;2022-11-02T14:36:26;17.33;;;9.67;;
10731;SDS011;5417;42.686;23.244;2022-11-02T14:39:11;10.07;;;6.80;;
10731;SDS011;5417;42.686;23.244;2022-11-02T14:41:54;11.10;;;5.70;;
10731;SDS011;5417;42.686;23.244;2022-11-02T14:47:42;12.80;;;6.00;;
10731;SDS011;5417;42.686;23.244;2022-11-02T14:50:13;9.77;;;6.53;;
10731;SDS011;5417;42.686;23.244;2022-11-02T14:52:51;8.87;;;6.37;;
10731;SDS011;5417;42.686;23.244;2022-11-02T14:55:24;11.73;;;6.37;;
10731;SDS011;5417;42.686;23.244;2022-11-02T14:57:54;12.87;;;6.23;;
10731;SDS011;5417;42.686;23.244;2022-11-02T15:00:31;16.43;;;7.30;;
10731;SDS011;5417;42.686;23.244;2022-11-02T15:03:03;48.23;;;34.70;;
10731;SDS011;5417;42.686;23.244;2022-11-02T15:05:34;28.17;;;21.13;;
10731;SDS011;5417;42.686;23.244;2022-11-02T15:08:03;21.17;;;14.53;;
10731;SDS011;5417;42.686;23.244;2022-11-02T15:10:39;18.03;;;8.80;;
10731;SDS011;5417;42.686;23.244;2022-11-02T15:13:30;16.27;;;8.47;;
10731;SDS011;5417;42.686;23.244;2022-11-02T15:22:31;14.30;;;7.00;;
10731;SDS011;5417;42.686;23.244;2022-11-02T15:25:04;16.70;;;6.77;;
10731;SDS011;5417;42.686;23.244;2022-11-02T15:27:40;14.77;;;6.63;;
10731;SDS011;5417;42.686;23.244;2022-11-02T15:30:11;13.87;;;5.97;;
10731;SDS011;5417;42.686;23.244;2022-11-02T15:32:41;15.87;;;6.43;;
10731;SDS011;5417;42.686;23.244;2022-11-02T15:35:15;13.70;;;6.37;;
10731;SDS011;5417;42.686;23.244;2022-11-02T15:37:45;11.37;;;5.57;;
10731;SDS011;5417;42.686;23.244;2022-11-02T15:40:22;10.83;;;6.10;;
10731;SDS011;5417;42.686;23.244;2022-11-02T15:42:57;11.90;;;5.73;;
10731;SDS011;5417;42.686;23.244;2022-11-02T15:48:22;19.67;;;7.87;;
10731;SDS011;5417;42.686;23.244;2022-11-02T15:50:59;7.87;;;5.70;;
10731;SDS011;5417;42.686;23.244;2022-11-02T15:53:38;8.90;;;6.23;;
10731;SDS011;5417;42.686;23.244;2022-11-02T15:56:20;10.40;;;6.20;;
10731;SDS011;5417;42.686;23.244;2022-11-02T15:59:16;9.87;;;6.00;;
10731;SDS011;5417;42.686;23.244;2022-11-02T16:02:01;13.77;;;6.37;;
10731;SDS011;5417;42.686;23.244;2022-11-02T16:04:37;13.73;;;6.93;;
10731;SDS011;5417;42.686;23.244;2022-11-02T16:07:10;10.13;;;7.10;;
10731;SDS011;5417;42.686;23.244;2022-11-02T16:09:41;9.23;;;6.83;;
10731;SDS011;5417;42.686;23.244;2022-11-02T16:12:10;9.97;;;5.50;;
10731;SDS011;5417;42.686;23.244;2022-11-02T16:14:42;10.33;;;5.40;;
10731;SDS011;5417;42.686;23.244;2022-11-02T16:17:20;10.60;;;6.00;;
10731;SDS011;5417;42.686;23.244;2022-11-02T16:19:49;11.50;;;5.83;;
10731;SDS011;5417;42.686;23.244;2022-11-02T16:22:19;12.53;;;6.00;;
10731;SDS011;5417;42.686;23.244;2022-11-02T16:24:49;7.00;;;4.70;;
10731;SDS011;5417;42.686;23.244;2022-11-02T16:27:17;9.30;;;5.60;;
10731;SDS011;5417;42.686;23.244;2022-11-02T16:29:46;7.03;;;5.17;;